createdAt,value
2022-07-29T00:00:24.937Z,100633.42
2022-07-29T00:02:54.160Z,100633.16
2022-07-29T00:05:23.281Z,100636.14
2022-07-29T00:07:53.956Z,100641.16
2022-07-29T00:10:23.284Z,100642.98
2022-07-29T00:12:52.494Z,100637.20
2022-07-29T00:15:21.430Z,100637.50
2022-07-29T00:17:50.549Z,100634.39
2022-07-29T00:20:19.715Z,100634.39
2022-07-29T00:22:48.813Z,100632.29
2022-07-29T00:25:17.939Z,100629.69
2022-07-29T00:27:48.585Z,100631.62
2022-07-29T00:30:17.715Z,100633.19
2022-07-29T00:32:46.776Z,100627.44
2022-07-29T00:35:33.449Z,100627.05
2022-07-29T00:38:02.676Z,100625.13
2022-07-29T00:40:31.799Z,100626.87
2022-07-29T00:43:00.976Z,100634.38
2022-07-29T00:45:31.151Z,100642.45
2022-07-29T00:48:00.175Z,100640.78
2022-07-29T00:50:29.575Z,100642.33
2022-07-29T00:52:58.719Z,100642.33
2022-07-29T00:55:27.901Z,100641.55
2022-07-29T00:57:59.247Z,100645.74
2022-07-29T01:00:30.759Z,100641.94
2022-07-29T01:03:00.291Z,100632.13
2022-07-29T01:05:50.342Z,100632.13
2022-07-29T01:08:02.570Z,100625.03
2022-07-29T01:10:32.493Z,100624.69
2022-07-29T01:13:03.274Z,100627.22
2022-07-29T01:15:35.557Z,100633.30
2022-07-29T01:18:22.122Z,100633.30
2022-07-29T01:21:09.144Z,100635.95
2022-07-29T01:24:01.941Z,100633.64
2022-07-29T01:26:51.651Z,100638.52
2022-07-29T01:29:35.930Z,100638.80
2022-07-29T01:32:27.679Z,100646.66
2022-07-29T01:34:56.989Z,100645.41
2022-07-29T01:37:46.634Z,100645.41
2022-07-29T01:40:24.364Z,100639.73
2022-07-29T01:42:59.348Z,100648.00
2022-07-29T01:45:37.222Z,100641.77
2022-07-29T01:48:09.184Z,100650.36
2022-07-29T01:50:41.156Z,100648.11
2022-07-29T01:53:12.716Z,100648.11
2022-07-29T01:55:44.815Z,100649.36
2022-07-29T01:58:15.800Z,100653.23
2022-07-29T02:00:46.779Z,100651.97
2022-07-29T02:03:17.963Z,100651.97
2022-07-29T02:05:49.912Z,100655.92
2022-07-29T02:08:21.000Z,100656.06
2022-07-29T02:10:52.801Z,100653.43
2022-07-29T02:13:24.902Z,100653.43
2022-07-29T02:15:56.080Z,100651.91
2022-07-29T02:18:27.646Z,100651.91
2022-07-29T02:20:58.892Z,100655.83
2022-07-29T02:23:28.577Z,100670.84
2022-07-29T02:25:59.956Z,100670.23
2022-07-29T02:28:31.916Z,100678.80
2022-07-29T02:31:03.718Z,100678.80
2022-07-29T02:33:34.349Z,100682.46
2022-07-29T02:36:04.921Z,100679.38
2022-07-29T02:38:54.673Z,100673.77
2022-07-29T02:41:41.400Z,100686.23
2022-07-29T02:44:14.070Z,100685.13
2022-07-29T02:46:52.123Z,100682.42
2022-07-29T02:49:27.118Z,100676.41
2022-07-29T02:52:01.894Z,100676.48
2022-07-29T02:54:33.882Z,100676.48
2022-07-29T02:57:05.835Z,100668.89
2022-07-29T02:59:37.820Z,100669.73
2022-07-29T03:02:09.426Z,100670.30
2022-07-29T03:04:41.703Z,100668.47
2022-07-29T03:07:13.581Z,100668.47
2022-07-29T03:09:44.857Z,100660.63
2022-07-29T03:12:14.497Z,100674.25
2022-07-29T03:14:45.861Z,100674.25
2022-07-29T03:17:16.048Z,100670.11
2022-07-29T03:19:45.373Z,100672.82
2022-07-29T03:22:15.876Z,100674.11
2022-07-29T03:24:46.602Z,100676.09
2022-07-29T03:27:17.686Z,100669.54
2022-07-29T03:29:50.040Z,100676.69
2022-07-29T03:32:17.604Z,100684.17
2022-07-29T03:34:48.263Z,100684.17
2022-07-29T03:37:17.298Z,100668.95
2022-07-29T03:39:48.287Z,100679.58
2022-07-29T03:42:20.670Z,100673.03
2022-07-29T03:44:52.427Z,100673.03
2022-07-29T03:47:36.812Z,100671.45
2022-07-29T03:49:58.209Z,100674.09
2022-07-29T03:52:27.381Z,100669.32
2022-07-29T03:54:56.685Z,100676.02
2022-07-29T03:57:28.760Z,100674.10
2022-07-29T03:59:58.574Z,100677.68
2022-07-29T04:02:30.697Z,100677.68
2022-07-29T04:04:59.308Z,100690.09
2022-07-29T04:07:28.393Z,100689.63
2022-07-29T04:09:57.512Z,100689.63
2022-07-29T04:12:26.589Z,100687.98
2022-07-29T04:14:55.677Z,100687.41
2022-07-29T04:17:24.692Z,100692.48
2022-07-29T04:19:53.790Z,100698.84
2022-07-29T04:22:22.990Z,100698.84
2022-07-29T04:24:52.184Z,100696.95
2022-07-29T04:27:21.296Z,100698.72
2022-07-29T04:29:57.138Z,100698.72
2022-07-29T04:32:21.152Z,100697.75
2022-07-29T04:34:50.285Z,100696.86
2022-07-29T04:37:19.423Z,100696.86
2022-07-29T04:39:48.471Z,100705.94
2022-07-29T04:42:17.586Z,100700.88
2022-07-29T04:44:48.336Z,100692.66
2022-07-29T04:47:19.435Z,100694.20
2022-07-29T04:49:48.508Z,100688.19
2022-07-29T04:52:17.597Z,100688.19
2022-07-29T04:54:46.719Z,100690.85
2022-07-29T04:57:15.847Z,100693.81
2022-07-29T04:59:45.074Z,100687.42
2022-07-29T05:02:14.196Z,100687.42
2022-07-29T05:04:43.384Z,100689.31
2022-07-29T05:07:12.489Z,100685.42
2022-07-29T05:09:41.575Z,100690.63
2022-07-29T05:12:11.076Z,100692.70
2022-07-29T05:14:40.094Z,100692.70
2022-07-29T05:17:09.209Z,100694.73
2022-07-29T05:19:39.862Z,100692.45
2022-07-29T05:22:09.120Z,100692.45
2022-07-29T05:24:38.497Z,100698.52
2022-07-29T05:27:07.602Z,100698.52
2022-07-29T05:29:44.993Z,100702.21
2022-07-29T05:32:09.009Z,100699.45
2022-07-29T05:34:38.110Z,100699.45
2022-07-29T05:37:08.763Z,100701.67
2022-07-29T05:39:47.300Z,100699.74
2022-07-29T05:42:13.687Z,100699.74
2022-07-29T05:44:42.777Z,100698.95
2022-07-29T05:47:12.659Z,100704.98
2022-07-29T05:49:41.666Z,100695.75
2022-07-29T05:52:11.399Z,100700.84
2022-07-29T05:54:40.814Z,100700.84
2022-07-29T05:57:11.133Z,100710.66
2022-07-29T05:59:41.133Z,100708.38
2022-07-29T06:02:10.583Z,100708.38
2022-07-29T06:04:39.720Z,100702.41
2022-07-29T06:07:08.943Z,100707.75
2022-07-29T06:09:38.191Z,100707.56
2022-07-29T06:12:07.468Z,100705.63
2022-07-29T06:14:36.642Z,100714.36
2022-07-29T06:17:06.727Z,100721.41
2022-07-29T06:19:37.574Z,100715.61
2022-07-29T06:22:06.974Z,100725.02
2022-07-29T06:24:39.976Z,100716.45
2022-07-29T06:27:09.070Z,100716.45
2022-07-29T06:29:38.198Z,100724.47
2022-07-29T06:32:08.467Z,100728.55
2022-07-29T06:34:41.001Z,100716.86
2022-07-29T06:37:15.742Z,100716.86
2022-07-29T06:39:42.975Z,100714.72
2022-07-29T06:42:12.040Z,100718.31
2022-07-29T06:44:41.118Z,100718.31
2022-07-29T06:47:10.217Z,100717.98
2022-07-29T06:49:39.899Z,100711.97
2022-07-29T06:52:09.001Z,100709.70
2022-07-29T06:54:38.062Z,100709.70
2022-07-29T06:57:07.139Z,100713.23
2022-07-29T06:59:36.268Z,100701.48
2022-07-29T07:02:05.490Z,100704.22
2022-07-29T07:04:34.661Z,100704.08
2022-07-29T07:07:03.774Z,100702.83
2022-07-29T07:09:40.381Z,100700.11
2022-07-29T07:12:03.631Z,100700.11
2022-07-29T07:14:32.681Z,100705.87
2022-07-29T07:17:01.865Z,100705.87
2022-07-29T07:19:30.892Z,100699.94
2022-07-29T07:22:00.140Z,100698.41
2022-07-29T07:24:31.203Z,100698.41
2022-07-29T07:27:00.316Z,100712.02
2022-07-29T07:29:29.405Z,100712.02
2022-07-29T07:32:01.124Z,100713.11
2022-07-29T07:34:31.288Z,100718.71
2022-07-29T07:37:00.377Z,100710.09
2022-07-29T07:39:29.672Z,100705.98
2022-07-29T07:41:58.783Z,100705.98
2022-07-29T07:44:27.949Z,100709.61
2022-07-29T07:46:57.025Z,100707.50
2022-07-29T07:49:27.809Z,100711.06
2022-07-29T07:51:57.425Z,100711.06
2022-07-29T07:54:26.611Z,100712.10
2022-07-29T07:56:55.843Z,100712.10
2022-07-29T07:59:24.893Z,100699.38
2022-07-29T08:01:56.175Z,100702.85
2022-07-29T08:04:28.619Z,100702.85
2022-07-29T08:06:57.550Z,100698.63
2022-07-29T08:09:30.283Z,100703.78
2022-07-29T08:12:00.573Z,100706.11
2022-07-29T08:14:29.823Z,100704.70
2022-07-29T08:16:59.261Z,100704.70
2022-07-29T08:19:28.508Z,100703.32
2022-07-29T08:21:57.590Z,100711.94
2022-07-29T08:24:44.607Z,100702.64
2022-07-29T08:27:40.650Z,100711.56
2022-07-29T08:29:45.061Z,100712.02
2022-07-29T08:32:22.292Z,100719.06
2022-07-29T08:34:46.827Z,100718.25
2022-07-29T08:37:15.898Z,100708.48
2022-07-29T08:39:45.853Z,100716.02
2022-07-29T08:42:15.313Z,100716.02
2022-07-29T08:44:44.959Z,100714.76
2022-07-29T08:47:18.363Z,100714.76
2022-07-29T08:49:49.050Z,100711.84
2022-07-29T08:52:19.214Z,100711.84
2022-07-29T08:54:49.686Z,100702.59
2022-07-29T08:57:20.927Z,100705.05
2022-07-29T08:59:52.439Z,100705.05
2022-07-29T09:02:23.878Z,100708.28
2022-07-29T09:04:53.241Z,100704.30
2022-07-29T09:07:22.503Z,100704.30
2022-07-29T09:09:51.564Z,100701.67
2022-07-29T09:12:28.620Z,100703.12
2022-07-29T09:14:52.000Z,100703.44
2022-07-29T09:17:22.505Z,100698.78
2022-07-29T09:19:53.147Z,100701.50
2022-07-29T09:22:25.109Z,100701.50
2022-07-29T09:24:55.834Z,100693.69
2022-07-29T09:27:27.891Z,100700.95
2022-07-29T09:30:08.153Z,100699.11
2022-07-29T09:32:58.425Z,100699.11
2022-07-29T09:35:29.088Z,100686.19
2022-07-29T09:37:58.705Z,100686.19
2022-07-29T09:40:30.112Z,100693.31
2022-07-29T09:42:59.518Z,100693.31
2022-07-29T09:45:36.183Z,100687.05
2022-07-29T09:48:16.629Z,100689.34
2022-07-29T09:50:48.069Z,100689.34
2022-07-29T09:53:38.380Z,100694.59
2022-07-29T09:56:07.931Z,100694.59
2022-07-29T09:58:37.030Z,100689.33
2022-07-29T10:01:06.113Z,100689.33
2022-07-29T10:03:36.766Z,100683.41
2022-07-29T10:06:11.454Z,100683.41
2022-07-29T10:08:40.837Z,100675.88
2022-07-29T10:11:15.675Z,100682.27
2022-07-29T10:13:46.853Z,100682.27
2022-07-29T10:16:17.369Z,100684.44
2022-07-29T10:18:51.718Z,100687.17
2022-07-29T10:21:22.573Z,100687.17
2022-07-29T10:23:53.326Z,100671.08
2022-07-29T10:26:26.064Z,100667.04
2022-07-29T10:28:55.401Z,100667.04
2022-07-29T10:31:27.424Z,100672.38
2022-07-29T10:34:18.687Z,100663.76
2022-07-29T10:37:11.767Z,100663.76
2022-07-29T10:39:58.423Z,100670.95
2022-07-29T10:42:34.612Z,100662.45
2022-07-29T10:45:04.554Z,100662.45
2022-07-29T10:47:35.383Z,100667.72
2022-07-29T10:50:07.423Z,100666.64
2022-07-29T10:52:57.928Z,100656.52
2022-07-29T10:55:47.781Z,100656.52
2022-07-29T10:58:20.079Z,100665.50
2022-07-29T11:00:52.704Z,100670.16
2022-07-29T11:03:50.701Z,100661.16
2022-07-29T11:06:26.672Z,100661.25
2022-07-29T11:08:52.729Z,100658.72
2022-07-29T11:11:29.761Z,100649.11
2022-07-29T11:13:57.014Z,100654.31
2022-07-29T11:16:26.835Z,100654.31
2022-07-29T11:19:15.989Z,100651.39
2022-07-29T11:21:55.503Z,100650.75
2022-07-29T11:24:28.546Z,100655.08
2022-07-29T11:27:22.037Z,100655.08
2022-07-29T11:29:56.944Z,100649.72
2022-07-29T11:32:29.877Z,100649.22
2022-07-29T11:35:37.073Z,100653.78
2022-07-29T11:38:31.839Z,100653.19
2022-07-29T11:41:23.189Z,100653.19
2022-07-29T11:43:54.668Z,100645.33
2022-07-29T11:46:46.518Z,100643.33
2022-07-29T11:49:17.920Z,100640.81
2022-07-29T11:51:57.067Z,100640.81
2022-07-29T11:54:29.823Z,100649.51
2022-07-29T11:57:00.629Z,100635.86
2022-07-29T12:02:32.947Z,100636.85
2022-07-29T12:04:33.915Z,100641.45
2022-07-29T12:07:02.430Z,100636.85
2022-07-29T12:09:40.418Z,100632.37
2022-07-29T12:12:05.766Z,100628.06
2022-07-29T12:14:36.212Z,100630.67
2022-07-29T12:17:05.754Z,100630.67
2022-07-29T12:19:38.265Z,100629.62
2022-07-29T12:22:07.351Z,100623.59
2022-07-29T12:24:46.570Z,100623.59
2022-07-29T12:27:19.109Z,100623.55
2022-07-29T12:30:00.791Z,100617.19
2022-07-29T12:32:40.808Z,100623.13
2022-07-29T12:35:16.302Z,100623.13
2022-07-29T12:37:48.417Z,100622.03
2022-07-29T12:40:18.792Z,100627.34
2022-07-29T12:43:10.523Z,100611.69
2022-07-29T12:45:41.441Z,100611.69
2022-07-29T12:48:12.322Z,100615.60
2022-07-29T12:50:59.329Z,100615.60
2022-07-29T12:53:29.340Z,100615.14
2022-07-29T12:56:07.999Z,100612.27
2022-07-29T12:58:38.986Z,100612.27
2022-07-29T13:01:17.055Z,100614.03
2022-07-29T13:03:57.354Z,100614.03
2022-07-29T13:06:35.343Z,100613.34
2022-07-29T13:09:16.538Z,100620.23
2022-07-29T13:11:48.941Z,100620.23
2022-07-29T13:14:38.550Z,100612.09
2022-07-29T13:17:20.175Z,100615.31
2022-07-29T13:19:54.441Z,100620.55
2022-07-29T13:22:25.941Z,100620.55
2022-07-29T13:25:00.689Z,100622.84
2022-07-29T13:27:33.169Z,100627.02
2022-07-29T13:30:04.226Z,100620.20
2022-07-29T13:32:35.646Z,100613.50
2022-07-29T13:35:07.105Z,100613.50
2022-07-29T13:37:39.120Z,100605.79
2022-07-29T13:40:10.486Z,100607.78
2022-07-29T13:42:39.960Z,100615.69
2022-07-29T13:45:09.981Z,100608.51
2022-07-29T13:47:40.987Z,100608.51
2022-07-29T13:50:11.706Z,100605.33
2022-07-29T13:52:41.237Z,100607.35
2022-07-29T13:55:10.980Z,100610.80
2022-07-29T13:57:40.107Z,100607.48
2022-07-29T14:00:09.883Z,100605.57
2022-07-29T14:02:39.837Z,100598.70
2022-07-29T14:05:11.590Z,100606.94
2022-07-29T14:07:41.368Z,100606.94
2022-07-29T14:10:11.213Z,100609.39
2022-07-29T14:12:42.366Z,100609.39
2022-07-29T14:15:12.002Z,100605.11
2022-07-29T14:17:40.988Z,100592.87
2022-07-29T14:20:10.405Z,100604.22
2022-07-29T14:22:42.657Z,100604.22
2022-07-29T14:25:14.454Z,100604.46
2022-07-29T14:27:45.602Z,100602.95
2022-07-29T14:30:15.227Z,100597.03
2022-07-29T14:32:44.263Z,100599.19
2022-07-29T14:35:13.339Z,100599.19
2022-07-29T14:37:49.578Z,100594.38
2022-07-29T14:40:18.900Z,100584.94
2022-07-29T14:42:47.909Z,100584.94
2022-07-29T14:45:17.090Z,100585.41
2022-07-29T14:47:46.172Z,100586.37
2022-07-29T14:50:15.586Z,100578.84
2022-07-29T14:52:44.935Z,100578.84
2022-07-29T14:55:16.471Z,100579.23
2022-07-29T14:57:44.725Z,100578.23
2022-07-29T15:00:14.924Z,100577.34
2022-07-29T15:03:00.908Z,100580.33
2022-07-29T15:05:14.891Z,100583.88
2022-07-29T15:07:44.467Z,100577.33
2022-07-29T15:10:14.762Z,100575.73
2022-07-29T15:12:44.311Z,100584.28
2022-07-29T15:15:13.454Z,100584.28
2022-07-29T15:17:43.547Z,100575.42
2022-07-29T15:20:13.178Z,100571.95
2022-07-29T15:22:44.039Z,100571.95
2022-07-29T15:25:13.521Z,100571.52
2022-07-29T15:27:42.679Z,100571.29
2022-07-29T15:30:32.981Z,100579.32
2022-07-29T15:32:46.818Z,100576.48
2022-07-29T15:35:15.896Z,100583.23
2022-07-29T15:37:48.885Z,100587.78
2022-07-29T15:40:15.746Z,100587.78
2022-07-29T15:42:44.880Z,100582.02
2022-07-29T15:45:13.954Z,100582.02
2022-07-29T15:47:43.090Z,100588.13
2022-07-29T15:50:13.897Z,100591.94
2022-07-29T15:52:43.183Z,100596.51
2022-07-29T15:55:13.268Z,100599.08
2022-07-29T15:57:42.335Z,100596.34
2022-07-29T16:00:12.015Z,100600.93
2022-07-29T16:02:41.067Z,100594.50
2022-07-29T16:05:10.382Z,100599.76
2022-07-29T16:07:39.568Z,100594.62
2022-07-29T16:10:08.772Z,100594.62
2022-07-29T16:12:37.820Z,100593.23
2022-07-29T16:15:10.220Z,100598.76
2022-07-29T16:17:38.815Z,100609.45
2022-07-29T16:20:08.797Z,100599.02
2022-07-29T16:22:39.760Z,100599.19
2022-07-29T16:25:09.466Z,100602.17
2022-07-29T16:27:38.527Z,100595.80
2022-07-29T16:30:10.098Z,100604.87
2022-07-29T16:32:41.630Z,100604.87
2022-07-29T16:35:10.931Z,100617.05
2022-07-29T16:37:39.930Z,100617.05
2022-07-29T16:40:11.344Z,100619.78
2022-07-29T16:42:47.088Z,100612.35
2022-07-29T16:45:12.304Z,100615.80
2022-07-29T16:47:41.437Z,100615.80
2022-07-29T16:50:11.065Z,100611.31
2022-07-29T16:52:40.388Z,100619.66
2022-07-29T16:55:09.641Z,100616.69
2022-07-29T16:57:38.725Z,100616.69
2022-07-29T17:00:08.560Z,100614.48
2022-07-29T17:02:38.939Z,100617.67
2022-07-29T17:05:09.022Z,100619.70
2022-07-29T17:07:38.219Z,100626.84
2022-07-29T17:10:10.965Z,100622.31
2022-07-29T17:12:41.561Z,100622.31
2022-07-29T17:15:13.067Z,100625.63
2022-07-29T17:17:56.454Z,100634.80
2022-07-29T17:20:14.840Z,100634.80
2022-07-29T17:22:47.325Z,100636.63
2022-07-29T17:25:20.435Z,100632.25
2022-07-29T17:27:47.282Z,100632.25
2022-07-29T17:30:16.296Z,100639.36
2022-07-29T17:32:45.421Z,100635.32
2022-07-29T17:35:32.140Z,100635.32
2022-07-29T17:38:01.353Z,100644.83
2022-07-29T17:40:30.426Z,100644.72
2022-07-29T17:42:59.551Z,100655.95
2022-07-29T17:45:48.898Z,100652.28
2022-07-29T17:47:59.349Z,100652.62
2022-07-29T17:50:28.496Z,100655.88
2022-07-29T17:52:57.775Z,100655.88
2022-07-29T17:55:26.866Z,100655.75
2022-07-29T17:57:59.909Z,100664.47
2022-07-29T18:00:26.878Z,100664.47
2022-07-29T18:02:55.962Z,100665.08
2022-07-29T18:05:25.083Z,100670.27
2022-07-29T18:07:55.974Z,100670.27
2022-07-29T18:10:25.104Z,100673.14
2022-07-29T18:12:54.368Z,100681.33
2022-07-29T18:15:23.548Z,100681.33
2022-07-29T18:17:57.086Z,100684.16
2022-07-29T18:20:23.614Z,100684.16
2022-07-29T18:22:52.696Z,100685.44
2022-07-29T18:25:22.347Z,100688.27
2022-07-29T18:27:51.996Z,100688.27
2022-07-29T18:30:21.560Z,100690.42
2022-07-29T18:33:19.158Z,100694.00
2022-07-29T18:35:21.529Z,100689.72
2022-07-29T18:38:00.833Z,100695.52
2022-07-29T18:40:23.338Z,100695.52
2022-07-29T18:42:52.755Z,100689.28
2022-07-29T18:45:21.921Z,100695.08
2022-07-29T18:47:51.968Z,100691.22
2022-07-29T18:50:26.950Z,100691.22
2022-07-29T18:52:55.259Z,100694.27
2022-07-29T18:55:24.585Z,100694.27
2022-07-29T18:57:56.058Z,100696.05
2022-07-29T19:00:24.576Z,100692.77
2022-07-29T19:02:54.129Z,100701.16
2022-07-29T19:05:23.896Z,100701.16
2022-07-29T19:07:54.555Z,100702.36
2022-07-29T19:10:24.043Z,100707.58
2022-07-29T19:12:53.136Z,100703.11
2022-07-29T19:15:22.233Z,100703.11
2022-07-29T19:17:51.247Z,100704.05
2022-07-29T19:20:20.405Z,100711.58
2022-07-29T19:22:50.550Z,100707.45
2022-07-29T19:25:19.826Z,100707.45
2022-07-29T19:27:48.981Z,100698.48
2022-07-29T19:30:18.832Z,100698.48
2022-07-29T19:32:48.785Z,100697.28
2022-07-29T19:35:33.566Z,100690.78
2022-07-29T19:38:04.074Z,100695.02
2022-07-29T19:40:35.101Z,100695.02
2022-07-29T19:43:04.218Z,100695.39
2022-07-29T19:45:35.653Z,100695.39
2022-07-29T19:48:05.447Z,100699.07
2022-07-29T19:50:34.861Z,100695.20
2022-07-29T19:53:03.958Z,100698.59
2022-07-29T19:55:43.600Z,100689.86
2022-07-29T19:58:12.760Z,100693.45
2022-07-29T20:00:42.047Z,100687.80
2022-07-29T20:03:13.469Z,100687.80
2022-07-29T20:05:43.392Z,100690.17
2022-07-29T20:08:14.180Z,100688.16
2022-07-29T20:10:43.368Z,100690.56
2022-07-29T20:13:12.515Z,100690.56
2022-07-29T20:15:41.731Z,100690.14
2022-07-29T20:18:10.847Z,100686.75
2022-07-29T20:20:39.983Z,100698.13
2022-07-29T20:23:09.216Z,100685.33
2022-07-29T20:25:39.405Z,100685.33
2022-07-29T20:28:08.591Z,100690.78
2022-07-29T20:30:38.396Z,100690.78
2022-07-29T20:33:07.750Z,100690.85
2022-07-29T20:35:36.916Z,100694.37
2022-07-29T20:38:07.087Z,100694.37
2022-07-29T20:40:36.230Z,100697.95
2022-07-29T20:43:06.073Z,100692.05
2022-07-29T20:45:36.827Z,100686.84
2022-07-29T20:48:07.066Z,100694.86
2022-07-29T20:50:37.548Z,100694.86
2022-07-29T20:53:06.609Z,100700.05
2022-07-29T20:55:35.740Z,100696.23
2022-07-29T20:58:04.841Z,100696.23
2022-07-29T21:00:34.084Z,100698.18
2022-07-29T21:03:03.326Z,100693.66
2022-07-29T21:05:34.010Z,100693.66
2022-07-29T21:08:03.150Z,100693.41
2022-07-29T21:10:32.221Z,100692.73
2022-07-29T21:13:01.392Z,100692.73
2022-07-29T21:15:30.726Z,100690.08
2022-07-29T21:18:06.481Z,100686.06
2022-07-29T21:20:35.572Z,100686.06
2022-07-29T21:23:04.641Z,100692.00
2022-07-29T21:25:35.155Z,100693.29
2022-07-29T21:28:22.020Z,100697.31
2022-07-29T21:30:51.025Z,100696.00
2022-07-29T21:33:20.180Z,100701.69
2022-07-29T21:38:20.861Z,100690.72
2022-07-29T21:40:51.836Z,100690.72
2022-07-29T21:43:21.320Z,100694.52
2022-07-29T21:45:53.496Z,100692.41
2022-07-29T21:48:24.167Z,100693.91
2022-07-29T21:50:53.634Z,100693.91
2022-07-29T21:53:26.806Z,100690.80
2022-07-29T21:55:57.173Z,100684.02
2022-07-29T21:58:26.239Z,100684.02
2022-07-29T22:00:55.423Z,100683.85
2022-07-29T22:03:24.696Z,100683.27
2022-07-29T22:05:53.752Z,100683.27
2022-07-29T22:08:22.935Z,100678.84
2022-07-29T22:10:51.872Z,100678.25
2022-07-29T22:13:20.942Z,100686.83
2022-07-29T22:15:50.131Z,100686.83
2022-07-29T22:18:20.699Z,100680.88
2022-07-29T22:20:50.826Z,100683.56
2022-07-29T22:23:20.032Z,100686.14
2022-07-29T22:25:49.147Z,100685.05
2022-07-29T22:28:18.260Z,100688.27
2022-07-29T22:30:47.455Z,100685.22
2022-07-29T22:33:16.923Z,100691.73
2022-07-29T22:35:48.383Z,100687.52
2022-07-29T22:38:19.350Z,100689.20
2022-07-29T22:40:50.605Z,100690.70
2022-07-29T22:43:20.185Z,100692.54
2022-07-29T22:45:49.328Z,100694.45
2022-07-29T22:48:18.408Z,100697.30
2022-07-29T22:50:47.675Z,100695.26
2022-07-29T22:53:16.995Z,100690.05
2022-07-29T22:55:47.754Z,100686.02
2022-07-29T22:58:16.843Z,100689.12
2022-07-29T23:00:45.943Z,100689.12
2022-07-29T23:03:15.086Z,100686.14
2022-07-29T23:05:44.229Z,100684.16
2022-07-29T23:08:13.386Z,100686.94
2022-07-29T23:10:42.383Z,100681.30
2022-07-29T23:13:11.672Z,100688.17
2022-07-29T23:15:41.012Z,100674.59
2022-07-29T23:18:10.148Z,100676.78
2022-07-29T23:20:39.142Z,100677.95
2022-07-29T23:23:08.222Z,100674.09
2022-07-29T23:25:37.803Z,100677.17
2022-07-29T23:28:07.037Z,100673.30
2022-07-29T23:30:37.706Z,100674.97
2022-07-29T23:33:06.851Z,100681.14
2022-07-29T23:35:36.142Z,100671.73
2022-07-29T23:38:05.236Z,100670.12
2022-07-29T23:40:34.400Z,100683.14
2022-07-29T23:43:03.479Z,100679.31
2022-07-29T23:45:44.726Z,100691.23
2022-07-29T23:48:04.952Z,100691.23
2022-07-29T23:50:34.112Z,100686.27
2022-07-29T23:53:03.147Z,100690.89
2022-07-29T23:55:36.371Z,100685.41
2022-07-29T23:58:03.256Z,100685.41
